Kibworth Harcourt, United Kingdom
Current Conditions -  °F | °C
As of 2:50 PM on Saturday 25 Oct 2014 (Local Time) from EGXT Reporting Station
Broken Clouds Broken Clouds  
Wind Chill: 57°   Ceiling: 2300
Heat Index: 57°   Visibility: 6mi
Dew Point: 48°   Wind: 15mph
Humidity: 72%   Direction: 230°SW
Pressure: 30"   Gusts: NA
Location:  52.54°N, 0.99°W
Report Text: EGXT 251350Z AUTO 23013KT 9999 // BKN023/// 14/09 Q1016
Loading
Personal Weather Stations






























Interactive Weather Map New forecast layout! Learn more

10-Day Weather Forecast

Advertisements
Track Severe Weather on mobile